createdAt,value
2023-01-29T00:01:12.848Z,9.45
2023-01-29T00:03:42.893Z,9.98
2023-01-29T00:06:12.837Z,8.63
2023-01-29T00:08:41.532Z,7.72
2023-01-29T00:11:11.264Z,9.30
2023-01-29T00:13:40.072Z,9.13
2023-01-29T00:16:09.432Z,8.20
2023-01-29T00:18:40.620Z,6.78
2023-01-29T00:21:13.493Z,7.07
2023-01-29T00:23:42.202Z,7.50
2023-01-29T00:26:12.187Z,9.27
2023-01-29T00:28:46.833Z,7.80
2023-01-29T00:31:19.332Z,8.07
2023-01-29T00:33:48.476Z,8.30
2023-01-29T00:36:20.690Z,10.43
2023-01-29T00:38:58.975Z,7.80
2023-01-29T00:41:47.246Z,14.57
2023-01-29T00:44:35.058Z,10.57
2023-01-29T00:47:04.360Z,9.50
2023-01-29T00:49:32.926Z,8.18
2023-01-29T00:52:20.337Z,7.00
2023-01-29T00:54:48.910Z,9.57
2023-01-29T00:57:17.408Z,8.98
2023-01-29T00:59:46.027Z,10.55
2023-01-29T01:02:32.265Z,9.70
2023-01-29T01:05:02.407Z,7.03
2023-01-29T01:07:34.184Z,7.97
2023-01-29T01:10:20.239Z,10.40
2023-01-29T01:12:51.663Z,11.88
2023-01-29T01:15:20.847Z,8.93
2023-01-29T01:17:49.912Z,9.90
2023-01-29T01:20:19.644Z,9.88
2023-01-29T01:22:49.772Z,8.45
2023-01-29T01:25:18.863Z,11.07
2023-01-29T01:27:47.873Z,9.15
2023-01-29T01:30:18.091Z,9.00
2023-01-29T01:32:46.980Z,8.75
2023-01-29T01:35:15.816Z,10.88
2023-01-29T01:37:44.849Z,11.10
2023-01-29T01:40:20.223Z,10.35
2023-01-29T01:42:50.822Z,8.95
2023-01-29T01:45:26.780Z,10.13
2023-01-29T01:48:03.236Z,9.48
2023-01-29T01:50:37.060Z,9.45
2023-01-29T01:53:12.593Z,8.85
2023-01-29T01:55:49.787Z,8.88
2023-01-29T01:58:25.491Z,9.65
2023-01-29T02:00:54.653Z,8.13
2023-01-29T02:03:47.241Z,9.35
2023-01-29T02:06:33.507Z,8.55
2023-01-29T02:09:27.172Z,9.27
2023-01-29T02:11:57.450Z,9.98
2023-01-29T02:14:26.556Z,8.30
2023-01-29T02:16:55.287Z,8.90
2023-01-29T02:19:40.732Z,8.60
2023-01-29T02:22:31.035Z,9.52
2023-01-29T02:25:29.731Z,9.95
2023-01-29T02:28:26.077Z,9.93
2023-01-29T02:31:07.311Z,8.95
2023-01-29T02:33:55.740Z,7.47
2023-01-29T02:36:39.038Z,6.65
2023-01-29T02:39:21.072Z,7.88
2023-01-29T02:42:02.550Z,7.85
2023-01-29T02:44:42.048Z,8.10
2023-01-29T02:47:19.870Z,8.20
2023-01-29T02:49:56.756Z,6.85
2023-01-29T02:52:36.601Z,8.25
2023-01-29T02:55:13.865Z,7.47
2023-01-29T02:57:47.922Z,6.97
2023-01-29T03:00:23.611Z,9.90
2023-01-29T03:03:01.141Z,10.70
2023-01-29T03:05:38.239Z,9.45
2023-01-29T03:08:12.909Z,9.32
2023-01-29T03:10:52.213Z,6.82
2023-01-29T03:13:31.371Z,11.38
2023-01-29T03:16:11.631Z,16.73
2023-01-29T03:18:50.860Z,7.72
2023-01-29T03:21:44.800Z,8.40
2023-01-29T03:24:36.794Z,8.68
2023-01-29T03:27:28.978Z,8.02
2023-01-29T03:30:19.297Z,9.82
2023-01-29T03:33:07.012Z,8.55
2023-01-29T03:35:41.405Z,9.25
2023-01-29T03:38:12.536Z,8.88
2023-01-29T03:40:52.154Z,8.43
2023-01-29T03:43:34.596Z,8.13
2023-01-29T03:46:11.664Z,9.27
2023-01-29T03:48:51.924Z,7.97
2023-01-29T03:51:31.264Z,7.68
2023-01-29T03:54:10.981Z,6.82
2023-01-29T03:56:57.973Z,8.48
2023-01-29T03:59:40.683Z,8.70
2023-01-29T04:02:36.921Z,7.03
2023-01-29T04:05:21.285Z,8.57
2023-01-29T04:08:13.986Z,8.85
2023-01-29T04:10:46.404Z,8.82
2023-01-29T04:13:18.901Z,6.65
2023-01-29T04:15:57.079Z,7.35
2023-01-29T04:18:56.073Z,11.43
2023-01-29T04:21:33.094Z,7.72
2023-01-29T04:24:01.858Z,8.35
2023-01-29T04:26:54.635Z,7.03
2023-01-29T04:29:40.442Z,8.60
2023-01-29T04:32:23.791Z,10.20
2023-01-29T04:35:02.555Z,7.60
2023-01-29T04:37:43.492Z,7.05
2023-01-29T04:40:21.766Z,6.55
2023-01-29T04:43:03.443Z,9.07
2023-01-29T04:45:46.264Z,8.48
2023-01-29T04:48:26.069Z,8.57
2023-01-29T04:51:05.380Z,7.63
2023-01-29T04:53:46.556Z,7.63
2023-01-29T04:56:26.097Z,9.70
2023-01-29T04:59:03.002Z,7.88
2023-01-29T05:01:34.877Z,7.93
2023-01-29T05:04:10.632Z,7.15
2023-01-29T05:06:41.271Z,6.47
2023-01-29T05:09:15.387Z,6.28
2023-01-29T05:11:47.363Z,6.70
2023-01-29T05:14:20.782Z,6.38
2023-01-29T05:16:53.874Z,8.75
2023-01-29T05:19:22.434Z,7.85
2023-01-29T05:21:51.778Z,7.35
2023-01-29T05:24:26.596Z,6.53
2023-01-29T05:27:14.225Z,5.53
2023-01-29T05:29:47.720Z,6.47
2023-01-29T05:32:17.483Z,5.43
2023-01-29T05:34:46.730Z,5.70
2023-01-29T05:37:15.312Z,6.93
2023-01-29T05:39:45.184Z,5.40
2023-01-29T05:42:13.732Z,7.65
2023-01-29T05:44:42.460Z,5.45
2023-01-29T05:47:11.101Z,5.90
2023-01-29T05:49:40.166Z,6.38
2023-01-29T05:52:08.724Z,7.32
2023-01-29T05:54:37.254Z,6.65
2023-01-29T05:57:07.170Z,5.90
2023-01-29T05:59:35.780Z,5.93
2023-01-29T06:02:04.452Z,6.43
2023-01-29T06:04:33.104Z,5.72
2023-01-29T06:07:03.409Z,6.07
2023-01-29T06:09:32.125Z,6.13
2023-01-29T06:12:00.643Z,5.38
2023-01-29T06:14:30.824Z,5.78
2023-01-29T06:16:59.647Z,6.55
2023-01-29T06:19:28.306Z,7.20
2023-01-29T06:21:56.916Z,6.32
2023-01-29T06:24:25.676Z,6.40
2023-01-29T06:26:54.499Z,5.82
2023-01-29T06:29:23.128Z,5.43
2023-01-29T06:31:53.171Z,6.28
2023-01-29T06:34:21.899Z,5.95
2023-01-29T06:36:50.570Z,6.10
2023-01-29T06:39:19.154Z,8.75
2023-01-29T06:41:47.739Z,6.93
2023-01-29T06:44:16.333Z,5.60
2023-01-29T06:46:44.936Z,6.97
2023-01-29T06:49:14.957Z,6.80
2023-01-29T06:51:43.536Z,7.25
2023-01-29T06:54:12.406Z,7.25
2023-01-29T06:56:41.142Z,7.40
2023-01-29T06:59:09.855Z,7.28
2023-01-29T07:01:42.424Z,6.85
2023-01-29T07:04:12.222Z,7.22
2023-01-29T07:06:42.396Z,5.95
2023-01-29T07:09:14.674Z,8.27
2023-01-29T07:11:43.652Z,7.97
2023-01-29T07:14:12.408Z,7.45
2023-01-29T07:16:41.290Z,6.65
2023-01-29T07:19:10.416Z,6.10
2023-01-29T07:21:39.668Z,6.15
2023-01-29T07:24:10.390Z,7.30
2023-01-29T07:26:39.333Z,6.68
2023-01-29T07:29:07.990Z,7.95
2023-01-29T07:31:37.464Z,8.20
2023-01-29T07:34:06.435Z,8.45
2023-01-29T07:36:37.226Z,7.82
2023-01-29T07:39:05.981Z,7.75
2023-01-29T07:41:36.076Z,6.90
2023-01-29T07:44:16.610Z,10.80
2023-01-29T07:46:45.423Z,8.02
2023-01-29T07:49:14.269Z,7.50
2023-01-29T07:51:43.213Z,7.63
2023-01-29T07:54:12.056Z,9.20
2023-01-29T07:56:42.180Z,6.57
2023-01-29T07:59:11.084Z,8.00
2023-01-29T08:01:39.700Z,8.48
2023-01-29T08:04:08.404Z,8.02
2023-01-29T08:06:37.094Z,8.85
2023-01-29T08:09:05.841Z,8.30
2023-01-29T08:11:34.507Z,7.30
2023-01-29T08:14:04.600Z,7.75
2023-01-29T08:16:33.160Z,9.13
2023-01-29T08:19:04.095Z,8.40
2023-01-29T08:21:32.809Z,10.85
2023-01-29T08:26:35.231Z,10.20
2023-01-29T08:29:05.173Z,10.25
2023-01-29T08:31:34.173Z,9.73
2023-01-29T08:34:02.876Z,8.00
2023-01-29T08:36:31.618Z,8.85
2023-01-29T08:39:00.294Z,7.10
2023-01-29T08:41:29.163Z,7.78
2023-01-29T08:44:00.300Z,9.75
2023-01-29T08:46:30.317Z,8.82
2023-01-29T08:48:59.198Z,7.80
2023-01-29T08:51:28.096Z,9.65
2023-01-29T08:53:56.672Z,9.48
2023-01-29T08:56:25.238Z,9.32
2023-01-29T08:58:53.839Z,8.35
2023-01-29T09:01:22.599Z,9.93
2023-01-29T09:03:52.991Z,9.85
2023-01-29T09:06:21.588Z,9.05
2023-01-29T09:08:50.267Z,8.65
2023-01-29T09:11:18.935Z,9.40
2023-01-29T09:13:47.626Z,10.02
2023-01-29T09:16:16.229Z,9.30
2023-01-29T09:18:44.923Z,10.60
2023-01-29T09:21:15.002Z,7.50
2023-01-29T09:23:43.527Z,8.55
2023-01-29T09:26:12.222Z,9.55
2023-01-29T09:28:41.097Z,10.75
2023-01-29T09:31:09.827Z,12.30
2023-01-29T09:33:38.585Z,10.30
2023-01-29T09:36:08.864Z,9.85
2023-01-29T09:38:38.888Z,10.13
2023-01-29T09:41:24.202Z,11.70
2023-01-29T09:44:01.492Z,12.17
2023-01-29T09:46:39.840Z,9.55
2023-01-29T09:49:20.925Z,12.43
2023-01-29T09:51:56.629Z,9.25
2023-01-29T09:54:31.974Z,11.13
2023-01-29T09:57:02.341Z,10.70
2023-01-29T09:59:33.289Z,10.20
2023-01-29T10:02:11.459Z,10.30
2023-01-29T10:05:09.425Z,9.87
2023-01-29T10:08:31.973Z,8.90
2023-01-29T10:11:13.927Z,14.07
2023-01-29T10:13:53.034Z,8.87
2023-01-29T10:16:40.905Z,10.02
2023-01-29T10:19:49.546Z,10.77
2023-01-29T10:22:50.651Z,10.45
2023-01-29T10:25:22.589Z,10.17
2023-01-29T10:27:57.587Z,11.50
2023-01-29T10:30:34.908Z,10.37
2023-01-29T10:33:06.312Z,10.60
2023-01-29T10:35:40.579Z,10.37
2023-01-29T10:38:32.573Z,11.37
2023-01-29T10:41:23.092Z,9.70
2023-01-29T10:44:15.793Z,12.97
2023-01-29T10:47:08.932Z,10.33
2023-01-29T10:50:14.983Z,9.50
2023-01-29T10:53:14.073Z,12.53
2023-01-29T10:56:01.236Z,10.70
2023-01-29T10:58:41.248Z,11.50
2023-01-29T11:01:12.321Z,10.30
2023-01-29T11:03:41.196Z,9.77
2023-01-29T11:06:19.204Z,11.50
2023-01-29T11:08:57.640Z,9.60
2023-01-29T11:11:36.899Z,11.07
2023-01-29T11:14:13.178Z,18.50
2023-01-29T11:16:47.469Z,10.07
2023-01-29T11:19:17.235Z,9.53
2023-01-29T11:21:57.686Z,9.10
2023-01-29T11:24:28.210Z,9.87
2023-01-29T11:27:00.606Z,10.60
2023-01-29T11:29:41.184Z,8.93
2023-01-29T11:32:25.488Z,13.40
2023-01-29T11:35:06.746Z,8.77
2023-01-29T11:37:39.427Z,8.47
2023-01-29T11:40:51.098Z,8.60
2023-01-29T11:43:31.043Z,10.20
2023-01-29T11:46:05.277Z,8.37
2023-01-29T11:48:44.794Z,9.23
2023-01-29T11:51:23.801Z,11.73
2023-01-29T11:53:57.862Z,9.60
2023-01-29T11:56:33.733Z,12.53
2023-01-29T11:59:04.576Z,10.73
2023-01-29T12:01:38.901Z,8.40
2023-01-29T12:04:20.639Z,9.70
2023-01-29T12:06:52.694Z,10.63
2023-01-29T12:09:27.168Z,9.93
2023-01-29T12:11:56.191Z,8.90
2023-01-29T12:14:35.250Z,8.70
2023-01-29T12:17:15.295Z,12.10
2023-01-29T12:19:54.706Z,11.87
2023-01-29T12:22:41.151Z,9.27
2023-01-29T12:25:24.436Z,18.80
2023-01-29T12:28:03.055Z,12.00
2023-01-29T12:30:43.244Z,11.17
2023-01-29T12:33:21.867Z,10.07
2023-01-29T12:35:59.996Z,9.73
2023-01-29T12:38:28.660Z,10.47
2023-01-29T12:41:07.933Z,14.40
2023-01-29T12:43:46.107Z,10.73
2023-01-29T12:46:26.116Z,12.00
2023-01-29T12:48:59.924Z,13.17
2023-01-29T12:51:38.759Z,10.63
2023-01-29T12:54:14.102Z,10.50
2023-01-29T12:56:47.936Z,10.90
2023-01-29T12:59:28.912Z,10.17
2023-01-29T13:02:06.531Z,9.53
2023-01-29T13:04:43.393Z,10.23
2023-01-29T13:07:20.512Z,13.77
2023-01-29T13:09:56.215Z,13.17
2023-01-29T13:12:25.742Z,10.40
2023-01-29T13:15:00.522Z,10.83
2023-01-29T13:17:37.217Z,11.23
2023-01-29T13:20:14.545Z,11.83
2023-01-29T13:22:48.149Z,11.53
2023-01-29T13:25:20.014Z,13.60
2023-01-29T13:27:50.238Z,10.60
2023-01-29T13:30:31.785Z,12.87
2023-01-29T13:33:11.120Z,14.13
2023-01-29T13:35:44.598Z,10.50
2023-01-29T13:38:28.137Z,14.57
2023-01-29T13:41:02.907Z,10.30
2023-01-29T13:43:39.583Z,11.90
2023-01-29T13:46:13.404Z,10.03
2023-01-29T13:48:50.054Z,9.73
2023-01-29T13:51:23.946Z,10.53
2023-01-29T13:54:04.830Z,10.20
2023-01-29T13:56:49.906Z,10.93
2023-01-29T13:59:55.188Z,9.80
2023-01-29T14:02:28.984Z,10.83
2023-01-29T14:05:41.342Z,12.40
2023-01-29T14:08:44.460Z,11.10
2023-01-29T14:11:38.348Z,15.40
2023-01-29T14:15:02.330Z,10.97
2023-01-29T14:17:31.497Z,9.90
2023-01-29T14:20:17.565Z,10.30
2023-01-29T14:22:56.597Z,10.67
2023-01-29T14:25:33.532Z,10.30
2023-01-29T14:28:05.707Z,9.90
2023-01-29T14:30:38.058Z,9.10
2023-01-29T14:33:19.701Z,9.07
2023-01-29T14:35:52.824Z,10.80
2023-01-29T14:38:25.135Z,11.53
2023-01-29T14:41:09.110Z,11.30
2023-01-29T14:43:37.900Z,8.33
2023-01-29T14:46:46.242Z,9.30
2023-01-29T14:49:54.967Z,10.67
2023-01-29T14:52:34.194Z,11.33
2023-01-29T14:55:08.956Z,11.60
2023-01-29T14:57:38.776Z,15.30
2023-01-29T15:00:18.501Z,10.10
2023-01-29T15:03:01.329Z,10.73
2023-01-29T15:05:38.410Z,10.27
2023-01-29T15:08:19.149Z,12.17
2023-01-29T15:11:09.009Z,12.80
2023-01-29T15:13:48.756Z,10.43
2023-01-29T15:16:23.883Z,12.57
2023-01-29T15:19:06.866Z,11.37
2023-01-29T15:21:35.585Z,11.03
2023-01-29T15:24:13.759Z,11.83
2023-01-29T15:26:44.727Z,9.77
2023-01-29T15:29:25.701Z,8.83
2023-01-29T15:31:55.358Z,12.27
2023-01-29T15:34:26.454Z,11.33
2023-01-29T15:36:55.318Z,9.50
2023-01-29T15:39:27.799Z,9.40
2023-01-29T15:42:15.669Z,10.10
2023-01-29T15:44:48.100Z,13.48
2023-01-29T15:47:17.434Z,12.10
2023-01-29T15:49:49.153Z,11.27
2023-01-29T15:52:22.993Z,10.37
2023-01-29T15:54:53.090Z,13.90
2023-01-29T15:57:26.686Z,17.60
2023-01-29T15:59:58.923Z,12.90
2023-01-29T16:02:39.877Z,13.07
2023-01-29T16:05:18.920Z,10.97
2023-01-29T16:07:48.573Z,14.80
2023-01-29T16:10:22.333Z,15.18
2023-01-29T16:12:53.145Z,14.15
2023-01-29T16:15:35.998Z,12.75
2023-01-29T16:18:22.184Z,14.27
2023-01-29T16:20:56.728Z,13.27
2023-01-29T16:23:30.553Z,17.08
2023-01-29T16:26:06.786Z,14.80
2023-01-29T16:28:41.607Z,23.58
2023-01-29T16:31:14.130Z,32.80
2023-01-29T16:33:45.534Z,20.40
2023-01-29T16:36:19.984Z,19.35
2023-01-29T16:38:52.176Z,43.53
2023-01-29T16:41:33.027Z,20.30
2023-01-29T16:44:04.183Z,17.70
2023-01-29T16:46:38.492Z,19.42
2023-01-29T16:49:45.067Z,15.63
2023-01-29T16:52:24.477Z,13.68
2023-01-29T16:54:54.018Z,15.50
2023-01-29T16:57:29.114Z,15.55
2023-01-29T17:00:02.716Z,17.10
2023-01-29T17:02:34.668Z,16.13
2023-01-29T17:05:09.166Z,16.20
2023-01-29T17:07:39.941Z,16.00
2023-01-29T17:10:17.844Z,13.63
2023-01-29T17:12:56.855Z,17.00
2023-01-29T17:15:37.451Z,16.52
2023-01-29T17:18:20.147Z,22.10
2023-01-29T17:20:49.988Z,25.95
2023-01-29T17:23:20.548Z,21.75
2023-01-29T17:25:51.797Z,21.50
2023-01-29T17:28:21.938Z,20.52
2023-01-29T17:31:04.178Z,22.27
2023-01-29T17:33:34.114Z,22.63
2023-01-29T17:36:02.752Z,19.23
2023-01-29T17:38:32.721Z,19.17
2023-01-29T17:41:07.014Z,20.30
2023-01-29T17:43:36.200Z,20.25
2023-01-29T17:46:05.191Z,17.73
2023-01-29T17:48:33.940Z,20.67
2023-01-29T17:51:05.495Z,20.27
2023-01-29T17:53:45.392Z,24.30
2023-01-29T17:56:20.065Z,19.33
2023-01-29T17:58:49.029Z,20.88
2023-01-29T18:01:17.745Z,18.15
2023-01-29T18:03:46.460Z,16.95
2023-01-29T18:06:26.172Z,18.90
2023-01-29T18:08:57.390Z,21.60
2023-01-29T18:11:26.666Z,19.55
2023-01-29T18:13:55.688Z,17.02
2023-01-29T18:16:26.007Z,20.88
2023-01-29T18:18:55.025Z,19.10
2023-01-29T18:21:23.739Z,15.68
2023-01-29T18:23:52.280Z,20.42
2023-01-29T18:26:22.775Z,22.30
2023-01-29T18:28:51.824Z,21.95
2023-01-29T18:31:20.606Z,20.83
2023-01-29T18:33:49.376Z,20.65
2023-01-29T18:36:18.099Z,26.08
2023-01-29T18:38:46.841Z,22.05
2023-01-29T18:41:15.525Z,20.35
2023-01-29T18:43:45.515Z,25.98
2023-01-29T18:46:14.291Z,24.25
2023-01-29T18:48:43.190Z,21.08
2023-01-29T18:51:11.985Z,22.90
2023-01-29T18:53:40.610Z,25.75
2023-01-29T18:56:10.794Z,18.17
2023-01-29T18:58:40.106Z,18.48
2023-01-29T19:01:12.233Z,21.83
2023-01-29T19:03:42.349Z,20.02
2023-01-29T19:06:13.179Z,21.05
2023-01-29T19:08:43.804Z,23.27
2023-01-29T19:11:13.036Z,20.75
2023-01-29T19:13:42.859Z,18.70
2023-01-29T19:16:14.259Z,17.98
2023-01-29T19:18:43.652Z,20.48
2023-01-29T19:21:16.065Z,17.52
2023-01-29T19:23:45.387Z,17.42
2023-01-29T19:26:14.073Z,19.40
2023-01-29T19:28:43.434Z,21.75
2023-01-29T19:31:13.567Z,19.52
2023-01-29T19:33:42.288Z,17.80
2023-01-29T19:36:12.815Z,16.38
2023-01-29T19:38:42.815Z,17.52
2023-01-29T19:41:11.650Z,16.77
2023-01-29T19:43:41.980Z,20.02
2023-01-29T19:46:12.885Z,17.45
2023-01-29T19:48:42.168Z,16.50
2023-01-29T19:51:13.087Z,16.75
2023-01-29T19:53:44.682Z,16.80
2023-01-29T19:56:16.517Z,20.55
2023-01-29T19:58:46.138Z,19.00
2023-01-29T20:01:19.181Z,22.52
2023-01-29T20:03:50.400Z,18.38
2023-01-29T20:06:24.995Z,17.60
2023-01-29T20:08:54.082Z,19.20
2023-01-29T20:11:24.868Z,16.67
2023-01-29T20:13:54.470Z,21.70
2023-01-29T20:16:25.662Z,15.73
2023-01-29T20:18:54.406Z,18.50
2023-01-29T20:21:23.527Z,16.58
2023-01-29T20:23:52.997Z,24.60
2023-01-29T20:26:22.875Z,25.20
2023-01-29T20:28:52.133Z,34.00
2023-01-29T20:31:21.136Z,28.90
2023-01-29T20:33:51.316Z,29.30
2023-01-29T20:36:20.013Z,36.03
2023-01-29T20:38:48.649Z,27.75
2023-01-29T20:41:19.277Z,23.83
2023-01-29T20:43:50.457Z,27.70
2023-01-29T20:46:19.826Z,22.83
2023-01-29T20:48:49.488Z,27.00
2023-01-29T20:51:20.179Z,22.13
2023-01-29T20:53:49.296Z,14.85
2023-01-29T20:56:20.606Z,16.70
2023-01-29T20:59:05.813Z,17.75
2023-01-29T21:01:34.567Z,16.02
2023-01-29T21:04:03.613Z,17.55
2023-01-29T21:06:33.747Z,19.02
2023-01-29T21:09:02.347Z,15.40
2023-01-29T21:11:33.403Z,14.25
2023-01-29T21:14:05.131Z,17.58
2023-01-29T21:16:34.953Z,16.50
2023-01-29T21:19:04.747Z,18.35
2023-01-29T21:21:35.965Z,21.58
2023-01-29T21:24:05.291Z,19.65
2023-01-29T21:26:34.090Z,21.05
2023-01-29T21:29:02.880Z,22.60
2023-01-29T21:31:32.235Z,18.80
2023-01-29T21:34:01.603Z,20.88
2023-01-29T21:36:31.684Z,22.15
2023-01-29T21:39:01.701Z,22.45
2023-01-29T21:41:44.201Z,22.33
2023-01-29T21:44:13.760Z,26.05
2023-01-29T21:46:42.648Z,23.10
2023-01-29T21:49:11.291Z,26.20
2023-01-29T21:51:41.527Z,28.90
2023-01-29T21:54:11.617Z,25.48
2023-01-29T21:56:40.258Z,23.35
2023-01-29T21:59:09.457Z,27.33
2023-01-29T22:01:38.872Z,26.20
2023-01-29T22:04:09.713Z,31.08
2023-01-29T22:06:38.401Z,24.13
2023-01-29T22:09:07.198Z,26.00
2023-01-29T22:11:37.545Z,23.75
2023-01-29T22:14:06.375Z,23.30
2023-01-29T22:16:35.328Z,26.23
2023-01-29T22:19:04.034Z,27.33
2023-01-29T22:21:36.000Z,27.00
2023-01-29T22:24:05.453Z,28.27
2023-01-29T22:26:34.196Z,27.08
2023-01-29T22:29:04.334Z,28.40
2023-01-29T22:31:33.035Z,29.42
2023-01-29T22:34:01.661Z,24.50
2023-01-29T22:36:30.221Z,23.27
2023-01-29T22:38:58.855Z,27.73
2023-01-29T22:41:27.469Z,28.13
2023-01-29T22:43:56.228Z,28.83
2023-01-29T22:46:26.131Z,28.30
2023-01-29T22:48:56.579Z,26.08
2023-01-29T22:51:25.413Z,30.15
2023-01-29T22:53:56.278Z,24.40
2023-01-29T22:56:27.606Z,32.35
2023-01-29T22:58:59.628Z,27.23
2023-01-29T23:01:32.418Z,30.63
2023-01-29T23:04:00.991Z,23.48
2023-01-29T23:06:29.725Z,27.70
2023-01-29T23:08:58.233Z,31.08
2023-01-29T23:11:26.849Z,28.45
2023-01-29T23:13:56.597Z,23.50
2023-01-29T23:16:28.270Z,26.48
2023-01-29T23:18:58.645Z,27.90
2023-01-29T23:21:28.544Z,26.90
2023-01-29T23:23:58.384Z,26.88
2023-01-29T23:26:45.983Z,29.27
2023-01-29T23:29:15.025Z,24.50
2023-01-29T23:31:43.699Z,24.90
2023-01-29T23:34:14.289Z,30.17
2023-01-29T23:36:44.068Z,28.27
2023-01-29T23:39:12.901Z,24.17
2023-01-29T23:41:41.621Z,23.70
2023-01-29T23:44:10.321Z,27.92
2023-01-29T23:46:40.086Z,29.10
2023-01-29T23:49:10.540Z,26.25
2023-01-29T23:51:41.031Z,29.20
2023-01-29T23:54:09.794Z,27.23
2023-01-29T23:56:38.402Z,28.63
2023-01-29T23:59:07.141Z,26.25
